Time,TemperatureF,DewpointF,PressureIn,WindDirection,WindDirectionDegrees,WindSpeedMPH,WindSpeedGustMPH,Humidity,HourlyPrecipIn,Conditions,Clouds,dailyrainin,SoftwareType,DateUTC
2013-04-06 00:00:00,47.1,42.2,30.12,North,0,0.0,0.0,83,0.00,,,0.00,WUHU21623XXSP,2013-04-06 05:00:00,
2013-04-06 00:05:00,46.9,42.0,30.12,North,0,0.0,0.0,83,0.00,,,0.00,WUHU21623XXSP,2013-04-06 05:05:00,
2013-04-06 00:10:00,46.8,41.9,30.12,North,0,0.0,0.0,83,0.00,,,0.00,WUHU21623XXSP,2013-04-06 05:10:00,
2013-04-06 00:15:00,46.6,41.9,30.13,North,0,0.0,0.0,83,0.00,,,0.00,WUHU21623XXSP,2013-04-06 05:15:00,
2013-04-06 00:20:00,46.6,41.7,30.13,North,0,0.0,0.0,83,0.00,,,0.00,WUHU21623XXSP,2013-04-06 05:20:00,
2013-04-06 00:25:00,46.2,41.4,30.13,North,0,0.0,0.0,83,0.00,,,0.00,WUHU21623XXSP,2013-04-06 05:25:00,
2013-04-06 00:30:00,46.2,41.4,30.13,North,0,0.0,0.0,83,0.00,,,0.00,WUHU21623XXSP,2013-04-06 05:30:00,
2013-04-06 00:35:00,46.0,41.2,30.13,North,0,0.0,0.0,83,0.00,,,0.00,WUHU21623XXSP,2013-04-06 05:35:00,
2013-04-06 00:40:00,46.0,41.5,30.13,North,0,0.0,0.0,84,0.00,,,0.00,WUHU21623XXSP,2013-04-06 05:40:00,
2013-04-06 00:45:00,45.7,41.1,30.12,North,0,0.0,0.0,84,0.00,,,0.00,WUHU21623XXSP,2013-04-06 05:45:00,
2013-04-06 00:50:00,45.7,41.1,30.12,North,0,0.0,0.0,84,0.00,,,0.00,WUHU21623XXSP,2013-04-06 05:50:00,
2013-04-06 00:55:00,45.5,41.0,30.12,North,0,0.0,0.0,84,0.00,,,0.00,WUHU21623XXSP,2013-04-06 05:55:00,
2013-04-06 01:00:00,45.5,41.0,30.12,North,0,0.0,0.0,84,0.00,,,0.00,WUHU21623XXSP,2013-04-06 06:00:00,
2013-04-06 01:05:00,45.5,41.0,30.12,North,0,0.0,0.0,84,0.00,,,0.00,WUHU21623XXSP,2013-04-06 06:05:00,
2013-04-06 01:10:00,45.3,41.1,30.12,North,0,0.0,0.0,85,0.00,,,0.00,WUHU21623XXSP,2013-04-06 06:10:00,
2013-04-06 01:15:00,45.1,40.9,30.12,North,0,0.0,0.0,85,0.00,,,0.00,WUHU21623XXSP,2013-04-06 06:15:00,
2013-04-06 01:20:00,45.1,40.9,30.12,North,0,0.0,0.0,85,0.00,,,0.00,WUHU21623XXSP,2013-04-06 06:20:00,
2013-04-06 01:25:00,45.1,40.9,30.12,North,0,0.0,0.0,85,0.00,,,0.00,WUHU21623XXSP,2013-04-06 06:25:00,
2013-04-06 01:30:00,45.0,40.7,30.12,North,0,0.0,0.0,85,0.00,,,0.00,WUHU21623XXSP,2013-04-06 06:30:00,
2013-04-06 01:35:00,44.8,40.5,30.12,North,0,0.0,0.0,85,0.00,,,0.00,WUHU21623XXSP,2013-04-06 06:35:00,
2013-04-06 01:40:00,44.6,40.4,30.12,North,0,0.0,0.0,85,0.00,,,0.00,WUHU21623XXSP,2013-04-06 06:40:00,
2013-04-06 01:45:00,44.4,40.2,30.12,North,0,0.0,0.0,85,0.00,,,0.00,WUHU21623XXSP,2013-04-06 06:45:00,
2013-04-06 01:50:00,44.4,40.2,30.12,North,0,0.0,0.0,85,0.00,,,0.00,WUHU21623XXSP,2013-04-06 06:50:00,
2013-04-06 01:55:00,44.4,40.2,30.12,North,0,0.0,0.0,85,0.00,,,0.00,WUHU21623XXSP,2013-04-06 06:55:00,
2013-04-06 02:00:00,44.2,40.0,30.11,North,0,0.0,0.0,85,0.00,,,0.00,WUHU21623XXSP,2013-04-06 07:00:00,
2013-04-06 02:05:00,44.1,39.8,30.12,North,0,0.0,0.0,85,0.00,,,0.00,WUHU21623XXSP,2013-04-06 07:05:00,
2013-04-06 02:10:00,43.9,40.0,30.11,North,0,0.0,0.0,86,0.00,,,0.00,WUHU21623XXSP,2013-04-06 07:10:00,
2013-04-06 02:16:00,43.9,40.0,30.11,North,0,0.0,0.0,86,0.00,,,0.00,WUHU21623XXSP,2013-04-06 07:16:00,
2013-04-06 02:21:00,43.9,40.0,30.11,North,0,0.0,0.0,86,0.00,,,0.00,WUHU21623XXSP,2013-04-06 07:21:00,
2013-04-06 02:26:00,43.7,39.8,30.11,North,0,0.0,0.0,86,0.00,,,0.00,WUHU21623XXSP,2013-04-06 07:26:00,
2013-04-06 02:31:00,43.5,39.6,30.11,North,0,0.0,0.0,86,0.00,,,0.00,WUHU21623XXSP,2013-04-06 07:31:00,
2013-04-06 02:36:00,43.5,39.6,30.11,North,0,0.0,0.0,86,0.00,,,0.00,WUHU21623XXSP,2013-04-06 07:36:00,
2013-04-06 02:41:00,43.3,39.4,30.11,North,0,0.0,0.0,86,0.00,,,0.00,WUHU21623XXSP,2013-04-06 07:41:00,
2013-04-06 02:46:00,43.3,39.4,30.11,North,0,0.0,0.0,86,0.00,,,0.00,WUHU21623XXSP,2013-04-06 07:46:00,
2013-04-06 02:51:00,43.2,39.2,30.11,North,0,0.0,0.0,86,0.00,,,0.00,WUHU21623XXSP,2013-04-06 07:51:00,
2013-04-06 02:56:00,43.2,39.2,30.11,North,0,0.0,0.0,86,0.00,,,0.00,WUHU21623XXSP,2013-04-06 07:56:00,
2013-04-06 03:01:00,43.0,39.4,30.11,North,0,0.0,0.0,87,0.00,,,0.00,WUHU21623XXSP,2013-04-06 08:01:00,
2013-04-06 03:06:00,43.0,39.4,30.11,North,0,0.0,0.0,87,0.00,,,0.00,WUHU21623XXSP,2013-04-06 08:06:00,
2013-04-06 03:11:00,43.0,39.4,30.11,North,0,0.0,0.0,87,0.00,,,0.00,WUHU21623XXSP,2013-04-06 08:11:00,
2013-04-06 03:16:00,43.0,39.4,30.11,North,0,0.0,0.0,87,0.00,,,0.00,WUHU21623XXSP,2013-04-06 08:16:00,
2013-04-06 03:21:00,42.8,39.2,30.11,North,0,0.0,0.0,87,0.00,,,0.00,WUHU21623XXSP,2013-04-06 08:21:00,
2013-04-06 03:26:00,42.6,39.0,30.11,North,0,0.0,0.0,87,0.00,,,0.00,WUHU21623XXSP,2013-04-06 08:26:00,
2013-04-06 03:31:00,42.6,39.0,30.11,North,0,0.0,0.0,87,0.00,,,0.00,WUHU21623XXSP,2013-04-06 08:31:00,
2013-04-06 03:36:00,42.6,39.0,30.11,North,0,0.0,0.0,87,0.00,,,0.00,WUHU21623XXSP,2013-04-06 08:36:00,
2013-04-06 03:41:00,42.4,38.8,30.11,North,0,0.0,0.0,87,0.00,,,0.00,WUHU21623XXSP,2013-04-06 08:41:00,
2013-04-06 03:46:00,42.4,38.8,30.11,North,0,0.0,0.0,87,0.00,,,0.00,WUHU21623XXSP,2013-04-06 08:46:00,
2013-04-06 03:51:00,42.4,38.8,30.11,North,0,0.0,0.0,87,0.00,,,0.00,WUHU21623XXSP,2013-04-06 08:51:00,
2013-04-06 03:56:00,42.1,38.5,30.10,North,0,0.0,0.0,87,0.00,,,0.00,WUHU21623XXSP,2013-04-06 08:56:00,
2013-04-06 04:01:00,42.1,38.5,30.11,North,0,0.0,0.0,87,0.00,,,0.00,WUHU21623XXSP,2013-04-06 09:01:00,
2013-04-06 04:06:00,42.1,38.5,30.10,North,0,0.0,0.0,87,0.00,,,0.00,WUHU21623XXSP,2013-04-06 09:06:00,
2013-04-06 04:11:00,41.9,38.3,30.11,North,0,0.0,0.0,87,0.00,,,0.00,WUHU21623XXSP,2013-04-06 09:11:00,
2013-04-06 04:16:00,41.9,38.3,30.10,North,0,0.0,0.0,87,0.00,,,0.00,WUHU21623XXSP,2013-04-06 09:16:00,
2013-04-06 04:21:00,41.7,38.1,30.10,North,0,0.0,0.0,87,0.00,,,0.00,WUHU21623XXSP,2013-04-06 09:21:00,
2013-04-06 04:26:00,41.7,38.1,30.10,North,0,0.0,0.0,87,0.00,,,0.00,WUHU21623XXSP,2013-04-06 09:26:00,
2013-04-06 04:31:00,41.7,38.1,30.10,North,0,0.0,0.0,87,0.00,,,0.00,WUHU21623XXSP,2013-04-06 09:31:00,
2013-04-06 04:36:00,41.7,38.1,30.11,North,0,0.0,0.0,87,0.00,,,0.00,WUHU21623XXSP,2013-04-06 09:36:00,
2013-04-06 04:41:00,41.5,38.2,30.11,North,0,0.0,0.0,88,0.00,,,0.00,WUHU21623XXSP,2013-04-06 09:41:00,
2013-04-06 04:46:00,41.5,38.2,30.11,North,0,0.0,0.0,88,0.00,,,0.00,WUHU21623XXSP,2013-04-06 09:46:00,
2013-04-06 04:52:00,41.5,38.2,30.11,North,0,0.0,0.0,88,0.00,,,0.00,WUHU21623XXSP,2013-04-06 09:52:00,
2013-04-06 04:57:00,41.5,38.2,30.11,North,0,0.0,0.0,88,0.00,,,0.00,WUHU21623XXSP,2013-04-06 09:57:00,
2013-04-06 05:02:00,41.5,38.2,30.11,North,0,0.0,0.0,88,0.00,,,0.00,WUHU21623XXSP,2013-04-06 10:02:00,
2013-04-06 05:07:00,41.4,38.0,30.11,North,0,0.0,0.0,88,0.00,,,0.00,WUHU21623XXSP,2013-04-06 10:07:00,
2013-04-06 05:12:00,41.4,38.0,30.11,North,0,0.0,0.0,88,0.00,,,0.00,WUHU21623XXSP,2013-04-06 10:12:00,
2013-04-06 05:17:00,41.2,37.9,30.11,North,0,0.0,0.0,88,0.00,,,0.00,WUHU21623XXSP,2013-04-06 10:17:00,
2013-04-06 05:22:00,41.2,37.9,30.11,North,0,0.0,0.0,88,0.00,,,0.00,WUHU21623XXSP,2013-04-06 10:22:00,
2013-04-06 05:27:00,41.2,37.9,30.11,North,0,0.0,0.0,88,0.00,,,0.00,WUHU21623XXSP,2013-04-06 10:27:00,
2013-04-06 05:32:00,41.0,37.7,30.11,North,0,0.0,0.0,88,0.00,,,0.00,WUHU21623XXSP,2013-04-06 10:32:00,
2013-04-06 05:37:00,40.8,37.5,30.11,North,0,0.0,0.0,88,0.00,,,0.00,WUHU21623XXSP,2013-04-06 10:37:00,
2013-04-06 05:42:00,40.8,37.5,30.11,North,0,0.0,0.0,88,0.00,,,0.00,WUHU21623XXSP,2013-04-06 10:42:00,
2013-04-06 05:47:00,40.8,37.5,30.12,North,0,0.0,0.0,88,0.00,,,0.00,WUHU21623XXSP,2013-04-06 10:47:00,
2013-04-06 05:52:00,40.8,37.5,30.12,North,0,0.0,0.0,88,0.00,,,0.00,WUHU21623XXSP,2013-04-06 10:52:00,
2013-04-06 05:57:00,40.6,37.3,30.12,North,0,0.0,0.0,88,0.00,,,0.00,WUHU21623XXSP,2013-04-06 10:57:00,
2013-04-06 06:02:00,40.6,37.3,30.13,North,0,0.0,0.0,88,0.00,,,0.00,WUHU21623XXSP,2013-04-06 11:02:00,
2013-04-06 06:07:00,40.5,37.1,30.13,North,0,0.0,0.0,88,0.00,,,0.00,WUHU21623XXSP,2013-04-06 11:07:00,
2013-04-06 06:12:00,40.3,37.0,30.13,North,0,0.0,0.0,88,0.00,,,0.00,WUHU21623XXSP,2013-04-06 11:12:00,
2013-04-06 06:17:00,40.3,37.0,30.13,North,0,0.0,0.0,89,0.00,,,0.00,WUHU21623XXSP,2013-04-06 11:17:00,
2013-04-06 06:22:00,40.3,37.3,30.13,North,0,0.0,0.0,89,0.00,,,0.00,WUHU21623XXSP,2013-04-06 11:22:00,
2013-04-06 06:27:00,40.3,37.3,30.13,North,0,0.0,0.0,89,0.00,,,0.00,WUHU21623XXSP,2013-04-06 11:27:00,
2013-04-06 06:32:00,40.1,37.1,30.12,North,0,0.0,0.0,89,0.00,,,0.00,WUHU21623XXSP,2013-04-06 11:32:00,
2013-04-06 06:33:00,40.1,37.1,30.12,North,0,0.0,0.0,89,0.00,,,0.00,WUHU21623XXSP,2013-04-06 11:33:00,
2013-04-06 06:38:00,40.1,37.1,30.12,North,0,0.0,0.0,89,0.00,,,0.00,WUHU21623XXSP,2013-04-06 11:38:00,
2013-04-06 06:43:00,39.9,36.9,30.13,North,0,0.0,0.0,89,0.00,,,0.00,WUHU21623XXSP,2013-04-06 11:43:00,
2013-04-06 06:48:00,39.9,36.9,30.13,North,0,0.0,0.0,89,0.00,,,0.00,WUHU21623XXSP,2013-04-06 11:48:00,
2013-04-06 06:53:00,39.9,36.9,30.13,North,0,0.0,0.0,89,0.00,,,0.00,WUHU21623XXSP,2013-04-06 11:53:00,
2013-04-06 06:58:00,40.1,37.1,30.13,North,0,0.0,0.0,89,0.00,,,0.00,WUHU21623XXSP,2013-04-06 11:58:00,
2013-04-06 07:03:00,39.9,36.9,30.13,North,0,0.0,0.0,89,0.00,,,0.00,WUHU21623XXSP,2013-04-06 12:03:00,
2013-04-06 07:08:00,40.1,37.1,30.14,North,0,0.0,0.0,89,0.00,,,0.00,WUHU21623XXSP,2013-04-06 12:08:00,
2013-04-06 07:13:00,40.5,37.5,30.14,North,0,0.0,0.0,89,0.00,,,0.00,WUHU21623XXSP,2013-04-06 12:13:00,
2013-04-06 07:18:00,40.8,38.1,30.14,North,0,0.0,0.0,90,0.00,,,0.00,WUHU21623XXSP,2013-04-06 12:18:00,
2013-04-06 07:23:00,41.5,38.8,30.14,North,0,0.0,0.0,90,0.00,,,0.00,WUHU21623XXSP,2013-04-06 12:23:00,
2013-04-06 07:28:00,42.4,39.7,30.15,North,0,0.0,0.0,90,0.00,,,0.00,WUHU21623XXSP,2013-04-06 12:28:00,
2013-04-06 07:33:00,43.2,40.5,30.15,North,0,0.0,0.0,90,0.00,,,0.00,WUHU21623XXSP,2013-04-06 12:33:00,
2013-04-06 07:38:00,43.9,41.2,30.15,North,0,0.0,0.0,90,0.00,,,0.00,WUHU21623XXSP,2013-04-06 12:38:00,
2013-04-06 07:43:00,45.0,42.3,30.15,North,0,0.0,0.0,90,0.00,,,0.00,WUHU21623XXSP,2013-04-06 12:43:00,
2013-04-06 07:48:00,45.5,42.8,30.16,North,0,0.0,0.0,90,0.00,,,0.00,WUHU21623XXSP,2013-04-06 12:48:00,
2013-04-06 07:53:00,46.6,44.1,30.16,North,0,0.0,0.0,91,0.00,,,0.00,WUHU21623XXSP,2013-04-06 12:53:00,
2013-04-06 07:58:00,47.3,44.5,30.16,North,0,0.0,0.0,90,0.00,,,0.00,WUHU21623XXSP,2013-04-06 12:58:00,
2013-04-06 08:03:00,48.0,45.3,30.16,North,0,0.0,0.0,90,0.00,,,0.00,WUHU21623XXSP,2013-04-06 13:03:00,
2013-04-06 08:08:00,48.7,46.0,30.16,North,0,0.0,0.0,90,0.00,,,0.00,WUHU21623XXSP,2013-04-06 13:08:00,
2013-04-06 08:13:00,48.9,46.1,30.16,North,0,0.0,0.0,90,0.00,,,0.00,WUHU21623XXSP,2013-04-06 13:13:00,
2013-04-06 08:18:00,49.3,46.5,30.16,North,0,0.0,0.0,90,0.00,,,0.00,WUHU21623XXSP,2013-04-06 13:18:00,
2013-04-06 08:23:00,49.8,47.0,30.16,North,0,0.0,0.0,90,0.00,,,0.00,WUHU21623XXSP,2013-04-06 13:23:00,
2013-04-06 08:29:00,50.7,47.8,30.16,North,0,0.0,0.0,90,0.00,,,0.00,WUHU21623XXSP,2013-04-06 13:29:00,
2013-04-06 08:34:00,51.4,48.6,30.16,North,0,0.0,0.0,90,0.00,,,0.00,WUHU21623XXSP,2013-04-06 13:34:00,
2013-04-06 08:39:00,52.3,49.0,30.16,North,0,0.0,0.0,88,0.00,,,0.00,WUHU21623XXSP,2013-04-06 13:39:00,
2013-04-06 08:44:00,52.9,48.8,30.16,North,0,0.0,0.0,86,0.00,,,0.00,WUHU21623XXSP,2013-04-06 13:44:00,
2013-04-06 08:49:00,53.8,49.4,30.16,North,0,0.0,0.0,85,0.00,,,0.00,WUHU21623XXSP,2013-04-06 13:49:00,
2013-04-06 08:54:00,54.1,49.4,30.16,North,0,0.0,0.0,84,0.00,,,0.00,WUHU21623XXSP,2013-04-06 13:54:00,
2013-04-06 08:59:00,54.3,49.2,30.16,North,0,0.0,0.0,83,0.00,,,0.00,WUHU21623XXSP,2013-04-06 13:59:00,
2013-04-06 09:04:00,54.9,49.1,30.16,North,0,0.0,0.0,81,0.00,,,0.00,WUHU21623XXSP,2013-04-06 14:04:00,
2013-04-06 09:09:00,55.2,49.4,30.16,North,0,0.0,0.0,81,0.00,,,0.00,WUHU21623XXSP,2013-04-06 14:09:00,
2013-04-06 09:14:00,56.1,49.3,30.16,North,0,0.0,0.0,78,0.00,,,0.00,WUHU21623XXSP,2013-04-06 14:14:00,
2013-04-06 09:20:00,56.8,49.6,30.17,North,0,0.0,0.0,77,0.00,,,0.00,WUHU21623XXSP,2013-04-06 14:20:00,
2013-04-06 09:25:00,57.4,49.5,30.17,North,0,0.0,0.0,75,0.00,,,0.00,WUHU21623XXSP,2013-04-06 14:25:00,
2013-04-06 09:30:00,58.3,50.0,30.17,North,0,0.0,0.0,74,0.00,,,0.00,WUHU21623XXSP,2013-04-06 14:30:00,
2013-04-06 09:35:00,58.8,49.8,30.17,North,0,0.0,0.0,72,0.00,,,0.00,WUHU21623XXSP,2013-04-06 14:35:00,
2013-04-06 09:40:00,59.5,50.2,30.17,North,0,0.0,0.0,72,0.00,,,0.00,WUHU21623XXSP,2013-04-06 14:40:00,
2013-04-06 09:45:00,60.1,50.7,30.17,North,0,0.0,0.0,71,0.00,,,0.00,WUHU21623XXSP,2013-04-06 14:45:00,
2013-04-06 09:50:00,60.4,51.1,30.17,North,0,0.0,0.0,71,0.00,,,0.00,WUHU21623XXSP,2013-04-06 14:50:00,
2013-04-06 09:55:00,60.8,50.7,30.17,North,0,0.0,0.0,69,0.00,,,0.00,WUHU21623XXSP,2013-04-06 14:55:00,
2013-04-06 10:00:00,61.7,50.2,30.17,North,0,0.0,0.0,66,0.00,,,0.00,WUHU21623XXSP,2013-04-06 15:00:00,
2013-04-06 10:05:00,62.2,50.7,30.17,North,0,0.0,0.0,66,0.00,,,0.00,WUHU21623XXSP,2013-04-06 15:05:00,
2013-04-06 10:10:00,62.8,50.8,30.18,North,0,0.0,0.0,65,0.00,,,0.00,WUHU21623XXSP,2013-04-06 15:10:00,
2013-04-06 10:15:00,63.1,50.7,30.17,North,0,0.0,0.0,64,0.00,,,0.00,WUHU21623XXSP,2013-04-06 15:15:00,
2013-04-06 10:20:00,63.5,51.1,30.17,North,0,0.0,0.0,64,0.00,,,0.00,WUHU21623XXSP,2013-04-06 15:20:00,
2013-04-06 10:25:00,64.0,49.5,30.18,North,0,0.0,0.0,60,0.00,,,0.00,WUHU21623XXSP,2013-04-06 15:25:00,
2013-04-06 10:30:00,64.4,50.0,30.18,North,0,0.0,0.0,58,0.00,,,0.00,WUHU21623XXSP,2013-04-06 15:30:00,
2013-04-06 10:35:00,64.8,49.6,30.17,North,0,0.0,0.0,58,0.00,,,0.00,WUHU21623XXSP,2013-04-06 15:35:00,
2013-04-06 10:40:00,65.3,50.6,30.18,North,0,0.0,0.0,59,0.00,,,0.00,WUHU21623XXSP,2013-04-06 15:40:00,
2013-04-06 10:45:00,65.5,50.8,30.18,North,0,0.0,0.0,59,0.00,,,0.00,WUHU21623XXSP,2013-04-06 15:45:00,
2013-04-06 10:50:00,66.0,51.1,30.18,North,0,0.0,0.0,58,0.00,,,0.00,WUHU21623XXSP,2013-04-06 15:50:00,
2013-04-06 10:55:00,66.4,48.7,30.18,North,0,0.0,0.0,53,0.00,,,0.00,WUHU21623XXSP,2013-04-06 15:55:00,
2013-04-06 11:00:00,66.7,50.5,30.18,North,0,0.0,0.0,56,0.00,,,0.00,WUHU21623XXSP,2013-04-06 16:00:00,
2013-04-06 11:05:00,66.9,50.7,30.17,North,0,0.0,0.0,56,0.00,,,0.00,WUHU21623XXSP,2013-04-06 16:05:00,
2013-04-06 11:10:00,67.3,48.6,30.18,North,0,0.0,0.0,51,0.00,,,0.00,WUHU21623XXSP,2013-04-06 16:10:00,
2013-04-06 11:15:00,67.6,47.8,30.18,North,0,0.0,0.0,49,0.00,,,0.00,WUHU21623XXSP,2013-04-06 16:15:00,
2013-04-06 11:20:00,67.8,49.5,30.17,North,0,0.0,0.0,52,0.00,,,0.00,WUHU21623XXSP,2013-04-06 16:20:00,
2013-04-06 11:25:00,68.2,49.4,30.17,North,0,0.0,0.0,51,0.00,,,0.00,WUHU21623XXSP,2013-04-06 16:25:00,
2013-04-06 11:30:00,68.4,49.1,30.17,North,0,0.0,0.0,50,0.00,,,0.00,WUHU21623XXSP,2013-04-06 16:30:00,
2013-04-06 11:35:00,68.5,48.0,30.17,North,0,0.0,0.0,48,0.00,,,0.00,WUHU21623XXSP,2013-04-06 16:35:00,
2013-04-06 11:40:00,68.9,49.5,30.17,North,0,0.0,0.0,50,0.00,,,0.00,WUHU21623XXSP,2013-04-06 16:40:00,
2013-04-06 11:45:00,69.1,49.7,30.17,North,0,0.0,0.0,50,0.00,,,0.00,WUHU21623XXSP,2013-04-06 16:45:00,
2013-04-06 11:50:00,69.4,50.0,30.18,North,0,0.0,0.0,48,0.00,,,0.00,WUHU21623XXSP,2013-04-06 16:50:00,
2013-04-06 11:55:00,70.0,49.9,30.17,North,0,0.0,0.0,49,0.00,,,0.00,WUHU21623XXSP,2013-04-06 16:55:00,
2013-04-06 12:00:00,70.5,49.8,30.18,North,0,0.0,0.0,48,0.00,,,0.00,WUHU21623XXSP,2013-04-06 17:00:00,
2013-04-06 12:06:00,71.1,48.4,30.18,North,0,0.0,0.0,47,0.00,,,0.00,WUHU21623XXSP,2013-04-06 17:06:00,
2013-04-06 12:11:00,71.8,50.4,30.17,North,0,0.0,0.0,47,0.00,,,0.00,WUHU21623XXSP,2013-04-06 17:11:00,
2013-04-06 12:16:00,72.3,49.1,30.18,North,0,0.0,0.0,44,0.00,,,0.00,WUHU21623XXSP,2013-04-06 17:16:00,
2013-04-06 12:21:00,72.9,49.5,30.18,North,0,0.0,0.0,44,0.00,,,0.00,WUHU21623XXSP,2013-04-06 17:21:00,
2013-04-06 12:27:00,73.2,47.5,30.17,North,0,0.0,0.0,40,0.00,,,0.00,WUHU21623XXSP,2013-04-06 17:27:00,
2013-04-06 12:32:00,73.6,49.0,30.17,North,0,0.0,0.0,42,0.00,,,0.00,WUHU21623XXSP,2013-04-06 17:32:00,
2013-04-06 12:37:00,73.9,49.9,30.17,North,0,0.0,0.0,43,0.00,,,0.00,WUHU21623XXSP,2013-04-06 17:37:00,
2013-04-06 12:42:00,74.3,50.3,30.17,North,0,0.0,0.0,43,0.00,,,0.00,WUHU21623XXSP,2013-04-06 17:42:00,
2013-04-06 12:47:00,74.8,49.0,30.17,North,0,0.0,0.0,40,0.00,,,0.00,WUHU21623XXSP,2013-04-06 17:47:00,
2013-04-06 12:52:00,75.0,49.7,30.17,North,0,0.0,0.0,41,0.00,,,0.00,WUHU21623XXSP,2013-04-06 17:52:00,
2013-04-06 12:57:00,75.4,49.4,30.17,North,0,0.0,0.0,40,0.00,,,0.00,WUHU21623XXSP,2013-04-06 17:57:00,
2013-04-06 13:02:00,75.7,49.8,30.16,North,0,0.0,0.0,40,0.00,,,0.00,WUHU21623XXSP,2013-04-06 18:02:00,
2013-04-06 13:07:00,75.9,49.2,30.17,North,0,0.0,0.0,39,0.00,,,0.00,WUHU21623XXSP,2013-04-06 18:07:00,
2013-04-06 13:12:00,76.3,48.7,30.16,North,0,0.0,0.0,38,0.00,,,0.00,WUHU21623XXSP,2013-04-06 18:12:00,
2013-04-06 13:17:00,76.5,48.1,30.16,North,0,0.0,0.0,37,0.00,,,0.00,WUHU21623XXSP,2013-04-06 18:17:00,
2013-04-06 13:23:00,76.5,44.4,30.15,North,0,0.0,0.0,32,0.00,,,0.00,WUHU21623XXSP,2013-04-06 18:23:00,
2013-04-06 13:28:00,76.1,47.1,30.15,North,0,0.0,0.0,36,0.00,,,0.00,WUHU21623XXSP,2013-04-06 18:28:00,
2013-04-06 13:33:00,76.1,45.6,30.15,North,0,0.0,0.0,34,0.00,,,0.00,WUHU21623XXSP,2013-04-06 18:33:00,
2013-04-06 13:38:00,76.1,47.1,30.15,North,0,0.0,0.0,36,0.00,,,0.00,WUHU21623XXSP,2013-04-06 18:38:00,
2013-04-06 13:43:00,76.3,45.0,30.15,North,0,0.0,0.0,33,0.00,,,0.00,WUHU21623XXSP,2013-04-06 18:43:00,
2013-04-06 13:48:00,76.5,45.1,30.14,North,0,0.0,0.0,33,0.00,,,0.00,WUHU21623XXSP,2013-04-06 18:48:00,
2013-04-06 13:53:00,76.3,45.0,30.15,North,0,0.0,0.0,33,0.00,,,0.00,WUHU21623XXSP,2013-04-06 18:53:00,
2013-04-06 13:58:00,76.6,46.8,30.14,North,0,0.0,0.0,35,0.00,,,0.00,WUHU21623XXSP,2013-04-06 18:58:00,
2013-04-06 14:03:00,76.6,46.8,30.14,North,0,0.0,0.0,35,0.00,,,0.00,WUHU21623XXSP,2013-04-06 19:03:00,
2013-04-06 14:08:00,77.4,48.2,30.14,North,0,0.0,0.0,36,0.00,,,0.00,WUHU21623XXSP,2013-04-06 19:08:00,
2013-04-06 14:13:00,77.7,48.5,30.14,North,0,0.0,0.0,36,0.00,,,0.00,WUHU21623XXSP,2013-04-06 19:13:00,
2013-04-06 14:18:00,78.4,48.3,30.14,North,0,0.0,0.0,35,0.00,,,0.00,WUHU21623XXSP,2013-04-06 19:18:00,
2013-04-06 14:23:00,78.6,48.5,30.13,North,0,0.0,0.0,35,0.00,,,0.00,WUHU21623XXSP,2013-04-06 19:23:00,
2013-04-06 14:28:00,78.6,47.7,30.13,North,0,0.0,0.0,34,0.00,,,0.00,WUHU21623XXSP,2013-04-06 19:28:00,
2013-04-06 14:33:00,78.6,49.3,30.13,North,0,0.0,0.0,36,0.00,,,0.00,WUHU21623XXSP,2013-04-06 19:33:00,
2013-04-06 14:38:00,77.7,48.5,30.13,North,0,0.0,0.0,36,0.00,,,0.00,WUHU21623XXSP,2013-04-06 19:38:00,
2013-04-06 14:43:00,77.5,49.9,30.13,North,0,0.0,0.0,38,0.00,,,0.00,WUHU21623XXSP,2013-04-06 19:43:00,
2013-04-06 14:48:00,77.4,51.2,30.13,North,0,0.0,0.0,40,0.00,,,0.00,WUHU21623XXSP,2013-04-06 19:48:00,
2013-04-06 14:53:00,76.8,50.0,30.12,North,0,0.0,0.0,39,0.00,,,0.00,WUHU21623XXSP,2013-04-06 19:53:00,
2013-04-06 14:58:00,76.6,51.2,30.12,North,0,0.0,0.0,41,0.00,,,0.00,WUHU21623XXSP,2013-04-06 19:58:00,
2013-04-06 15:03:00,76.6,50.6,30.12,North,0,0.0,0.0,40,0.00,,,0.00,WUHU21623XXSP,2013-04-06 20:03:00,
2013-04-06 15:08:00,76.6,51.2,30.12,North,0,0.0,0.0,41,0.00,,,0.00,WUHU21623XXSP,2013-04-06 20:08:00,
2013-04-06 15:13:00,76.8,52.0,30.12,North,0,0.0,0.0,42,0.00,,,0.00,WUHU21623XXSP,2013-04-06 20:13:00,
2013-04-06 15:18:00,76.6,52.4,30.12,North,0,0.0,0.0,43,0.00,,,0.00,WUHU21623XXSP,2013-04-06 20:18:00,
2013-04-06 15:23:00,76.8,53.2,30.12,North,0,0.0,0.0,44,0.00,,,0.00,WUHU21623XXSP,2013-04-06 20:23:00,
2013-04-06 15:28:00,77.2,53.5,30.12,North,0,0.0,0.0,44,0.00,,,0.00,WUHU21623XXSP,2013-04-06 20:28:00,
2013-04-06 15:33:00,77.5,53.8,30.11,North,0,0.0,0.0,44,0.00,,,0.00,WUHU21623XXSP,2013-04-06 20:33:00,
2013-04-06 15:38:00,77.7,54.6,30.12,North,0,0.0,0.0,45,0.00,,,0.00,WUHU21623XXSP,2013-04-06 20:38:00,
2013-04-06 15:43:00,77.5,54.4,30.11,North,0,0.0,0.0,45,0.00,,,0.00,WUHU21623XXSP,2013-04-06 20:43:00,
2013-04-06 15:48:00,77.5,54.4,30.11,North,0,0.0,0.0,45,0.00,,,0.00,WUHU21623XXSP,2013-04-06 20:48:00,
2013-04-06 15:53:00,77.5,55.1,30.11,North,0,0.0,0.0,46,0.00,,,0.00,WUHU21623XXSP,2013-04-06 20:53:00,
2013-04-06 15:58:00,77.7,55.8,30.11,North,0,0.0,0.0,47,0.00,,,0.00,WUHU21623XXSP,2013-04-06 20:58:00,
2013-04-06 16:03:00,77.7,54.6,30.11,North,0,0.0,0.0,45,0.00,,,0.00,WUHU21623XXSP,2013-04-06 21:03:00,
2013-04-06 16:08:00,77.7,55.2,30.11,North,0,0.0,0.0,46,0.00,,,0.00,WUHU21623XXSP,2013-04-06 21:08:00,
2013-04-06 16:13:00,77.9,55.4,30.11,North,0,0.0,0.0,46,0.00,,,0.00,WUHU21623XXSP,2013-04-06 21:13:00,
2013-04-06 16:18:00,78.1,54.9,30.11,North,0,0.0,0.0,45,0.00,,,0.00,WUHU21623XXSP,2013-04-06 21:18:00,
2013-04-06 16:23:00,77.7,54.6,30.11,North,0,0.0,0.0,45,0.00,,,0.00,WUHU21623XXSP,2013-04-06 21:23:00,
2013-04-06 16:28:00,77.4,54.3,30.11,North,0,0.0,0.0,45,0.00,,,0.00,WUHU21623XXSP,2013-04-06 21:28:00,
2013-04-06 16:33:00,76.1,53.2,30.11,North,0,0.0,0.0,45,0.00,,,0.00,WUHU21623XXSP,2013-04-06 21:33:00,
2013-04-06 16:38:00,75.4,53.1,30.11,North,0,0.0,0.0,46,0.00,,,0.00,WUHU21623XXSP,2013-04-06 21:38:00,
2013-04-06 16:43:00,74.8,53.2,30.11,North,0,0.0,0.0,47,0.00,,,0.00,WUHU21623XXSP,2013-04-06 21:43:00,
2013-04-06 16:48:00,73.9,52.9,30.11,North,0,0.0,0.0,48,0.00,,,0.00,WUHU21623XXSP,2013-04-06 21:48:00,
2013-04-06 16:53:00,73.8,52.8,30.11,North,0,0.0,0.0,48,0.00,,,0.00,WUHU21623XXSP,2013-04-06 21:53:00,
2013-04-06 16:58:00,73.6,52.6,30.11,North,0,0.0,0.0,48,0.00,,,0.00,WUHU21623XXSP,2013-04-06 21:58:00,
2013-04-06 17:03:00,73.2,52.3,30.11,North,0,0.0,0.0,48,0.00,,,0.00,WUHU21623XXSP,2013-04-06 22:03:00,
2013-04-06 17:08:00,72.5,52.2,30.11,North,0,0.0,0.0,49,0.00,,,0.00,WUHU21623XXSP,2013-04-06 22:08:00,
2013-04-06 17:13:00,72.1,52.5,30.11,North,0,0.0,0.0,50,0.00,,,0.00,WUHU21623XXSP,2013-04-06 22:13:00,
2013-04-06 17:18:00,71.8,52.6,30.11,North,0,0.0,0.0,51,0.00,,,0.00,WUHU21623XXSP,2013-04-06 22:18:00,
2013-04-06 17:23:00,72.0,52.8,30.11,North,0,0.0,0.0,51,0.00,,,0.00,WUHU21623XXSP,2013-04-06 22:23:00,
2013-04-06 17:28:00,72.0,52.8,30.11,North,0,0.0,0.0,51,0.00,,,0.00,WUHU21623XXSP,2013-04-06 22:28:00,
2013-04-06 17:33:00,72.3,53.1,30.11,North,0,0.0,0.0,51,0.00,,,0.00,WUHU21623XXSP,2013-04-06 22:33:00,
2013-04-06 17:38:00,72.5,53.1,30.11,North,0,0.0,0.0,50,0.00,,,0.00,WUHU21623XXSP,2013-04-06 22:38:00,
2013-04-06 17:43:00,72.7,53.5,30.11,North,0,0.0,0.0,51,0.00,,,0.00,WUHU21623XXSP,2013-04-06 22:43:00,
2013-04-06 17:48:00,72.9,53.6,30.11,North,0,0.0,0.0,51,0.00,,,0.00,WUHU21623XXSP,2013-04-06 22:48:00,
2013-04-06 17:53:00,72.7,53.0,30.11,North,0,0.0,0.0,50,0.00,,,0.00,WUHU21623XXSP,2013-04-06 22:53:00,
2013-04-06 17:58:00,72.3,52.6,30.11,North,0,0.0,0.0,50,0.00,,,0.00,WUHU21623XXSP,2013-04-06 22:58:00,
2013-04-06 18:03:00,71.4,52.3,30.11,North,0,0.0,0.0,51,0.00,,,0.00,WUHU21623XXSP,2013-04-06 23:03:00,
2013-04-06 18:08:00,70.9,52.2,30.11,North,0,0.0,0.0,51,0.00,,,0.00,WUHU21623XXSP,2013-04-06 23:08:00,
2013-04-06 18:13:00,70.3,51.9,30.11,North,0,0.0,0.0,52,0.00,,,0.00,WUHU21623XXSP,2013-04-06 23:13:00,
2013-04-06 18:18:00,69.6,51.4,30.11,North,0,0.0,0.0,53,0.00,,,0.00,WUHU21623XXSP,2013-04-06 23:18:00,
2013-04-06 18:23:00,69.1,51.2,30.11,North,0,0.0,0.0,53,0.00,,,0.00,WUHU21623XXSP,2013-04-06 23:23:00,
2013-04-06 18:28:00,68.7,50.9,30.11,North,0,0.0,0.0,53,0.00,,,0.00,WUHU21623XXSP,2013-04-06 23:28:00,
2013-04-06 18:33:00,68.2,51.3,30.11,North,0,0.0,0.0,55,0.00,,,0.00,WUHU21623XXSP,2013-04-06 23:33:00,
2013-04-06 18:38:00,67.8,51.0,30.11,North,0,0.0,0.0,55,0.00,,,0.00,WUHU21623XXSP,2013-04-06 23:38:00,
2013-04-06 18:43:00,67.5,51.2,30.11,North,0,0.0,0.0,56,0.00,,,0.00,WUHU21623XXSP,2013-04-06 23:43:00,
2013-04-06 18:48:00,66.9,51.7,30.11,North,0,0.0,0.0,58,0.00,,,0.00,WUHU21623XXSP,2013-04-06 23:48:00,
2013-04-06 18:53:00,66.7,51.5,30.11,North,0,0.0,0.0,58,0.00,,,0.00,WUHU21623XXSP,2013-04-06 23:53:00,
2013-04-06 18:58:00,66.6,52.3,30.11,North,0,0.0,0.0,60,0.00,,,0.00,WUHU21623XXSP,2013-04-06 23:58:00,
2013-04-06 19:04:00,66.0,52.0,30.11,North,0,0.0,0.0,61,0.00,,,0.00,WUHU21623XXSP,2013-04-07 00:04:00,
2013-04-06 19:09:00,65.8,52.0,30.11,North,0,0.0,0.0,61,0.00,,,0.00,WUHU21623XXSP,2013-04-07 00:09:00,
2013-04-06 19:14:00,65.1,51.7,30.11,North,0,0.0,0.0,62,0.00,,,0.00,WUHU21623XXSP,2013-04-07 00:14:00,
2013-04-06 19:19:00,64.9,51.6,30.11,North,0,0.0,0.0,62,0.00,,,0.00,WUHU21623XXSP,2013-04-07 00:19:00,
2013-04-06 19:24:00,64.6,51.2,30.11,North,0,0.0,0.0,62,0.00,,,0.00,WUHU21623XXSP,2013-04-07 00:24:00,
2013-04-06 19:29:00,64.0,51.1,30.11,North,0,0.0,0.0,63,0.00,,,0.00,WUHU21623XXSP,2013-04-07 00:29:00,
2013-04-06 19:34:00,63.7,50.8,30.11,North,0,0.0,0.0,63,0.00,,,0.00,WUHU21623XXSP,2013-04-07 00:34:00,
2013-04-06 19:40:00,63.1,50.7,30.11,North,0,0.0,0.0,64,0.00,,,0.00,WUHU21623XXSP,2013-04-07 00:40:00,
2013-04-06 19:45:00,62.8,50.4,30.11,North,0,0.0,0.0,64,0.00,,,0.00,WUHU21623XXSP,2013-04-07 00:45:00,
2013-04-06 19:50:00,62.4,50.5,30.11,North,0,0.0,0.0,65,0.00,,,0.00,WUHU21623XXSP,2013-04-07 00:50:00,
2013-04-06 19:55:00,62.1,50.1,30.11,North,0,0.0,0.0,65,0.00,,,0.00,WUHU21623XXSP,2013-04-07 00:55:00,
2013-04-06 20:00:00,61.7,50.2,30.12,North,0,0.0,0.0,66,0.00,,,0.00,WUHU21623XXSP,2013-04-07 01:00:00,
2013-04-06 20:05:00,61.3,49.9,30.11,North,0,0.0,0.0,66,0.00,,,0.00,WUHU21623XXSP,2013-04-07 01:05:00,
2013-04-06 20:10:00,61.0,50.0,30.11,North,0,0.0,0.0,67,0.00,,,0.00,WUHU21623XXSP,2013-04-07 01:10:00,
2013-04-06 20:15:00,60.6,49.7,30.11,North,0,0.0,0.0,67,0.00,,,0.00,WUHU21623XXSP,2013-04-07 01:15:00,
2013-04-06 20:20:00,60.4,49.9,30.11,North,0,0.0,0.0,68,0.00,,,0.00,WUHU21623XXSP,2013-04-07 01:20:00,
2013-04-06 20:25:00,60.1,49.9,30.11,North,0,0.0,0.0,69,0.00,,,0.00,WUHU21623XXSP,2013-04-07 01:25:00,
2013-04-06 20:30:00,59.7,50.2,30.11,North,0,0.0,0.0,69,0.00,,,0.00,WUHU21623XXSP,2013-04-07 01:30:00,
2013-04-06 20:35:00,59.4,50.0,30.11,North,0,0.0,0.0,71,0.00,,,0.00,WUHU21623XXSP,2013-04-07 01:35:00,
2013-04-06 20:40:00,59.0,49.6,30.11,North,0,0.0,0.0,71,0.00,,,0.00,WUHU21623XXSP,2013-04-07 01:40:00,
2013-04-06 20:45:00,58.8,49.5,30.11,North,0,0.0,0.0,71,0.00,,,0.00,WUHU21623XXSP,2013-04-07 01:45:00,
2013-04-06 20:50:00,58.3,49.3,30.11,North,0,0.0,0.0,72,0.00,,,0.00,WUHU21623XXSP,2013-04-07 01:50:00,
2013-04-06 20:55:00,57.9,49.1,30.12,North,0,0.0,0.0,72,0.00,,,0.00,WUHU21623XXSP,2013-04-07 01:55:00,
2013-04-06 21:00:00,57.7,49.1,30.11,North,0,0.0,0.0,73,0.00,,,0.00,WUHU21623XXSP,2013-04-07 02:00:00,
2013-04-06 21:05:00,57.4,48.7,30.11,North,0,0.0,0.0,73,0.00,,,0.00,WUHU21623XXSP,2013-04-07 02:05:00,
2013-04-06 21:10:00,57.0,49.1,30.11,North,0,0.0,0.0,74,0.00,,,0.00,WUHU21623XXSP,2013-04-07 02:10:00,
2013-04-06 21:15:00,57.0,48.7,30.12,North,0,0.0,0.0,74,0.00,,,0.00,WUHU21623XXSP,2013-04-07 02:15:00,
2013-04-06 21:20:00,56.5,48.6,30.12,North,0,0.0,0.0,75,0.00,,,0.00,WUHU21623XXSP,2013-04-07 02:20:00,
2013-04-06 21:25:00,56.3,48.6,30.12,North,0,0.0,0.0,75,0.00,,,0.00,WUHU21623XXSP,2013-04-07 02:25:00,
2013-04-06 21:30:00,56.1,48.3,30.12,North,0,0.0,0.0,75,0.00,,,0.00,WUHU21623XXSP,2013-04-07 02:30:00,
2013-04-06 21:35:00,55.8,48.3,30.11,North,0,0.0,0.0,76,0.00,,,0.00,WUHU21623XXSP,2013-04-07 02:35:00,
2013-04-06 21:40:00,55.6,48.1,30.11,North,0,0.0,0.0,76,0.00,,,0.00,WUHU21623XXSP,2013-04-07 02:40:00,
2013-04-06 21:45:00,55.2,48.1,30.11,North,0,0.0,0.0,77,0.00,,,0.00,WUHU21623XXSP,2013-04-07 02:45:00,
2013-04-06 21:50:00,55.0,47.9,30.11,North,0,0.0,0.0,77,0.00,,,0.00,WUHU21623XXSP,2013-04-07 02:50:00,
2013-04-06 21:55:00,54.7,47.8,30.11,North,0,0.0,0.0,77,0.00,,,0.00,WUHU21623XXSP,2013-04-07 02:55:00,
2013-04-06 22:00:00,54.5,47.8,30.12,North,0,0.0,0.0,78,0.00,,,0.00,WUHU21623XXSP,2013-04-07 03:00:00,
2013-04-06 22:05:00,54.3,47.6,30.12,North,0,0.0,0.0,78,0.00,,,0.00,WUHU21623XXSP,2013-04-07 03:05:00,
2013-04-06 22:10:00,54.1,47.4,30.12,North,0,0.0,0.0,78,0.00,,,0.00,WUHU21623XXSP,2013-04-07 03:10:00,
2013-04-06 22:15:00,53.8,47.1,30.12,North,0,0.0,0.0,78,0.00,,,0.00,WUHU21623XXSP,2013-04-07 03:15:00,
2013-04-06 22:20:00,53.4,47.1,30.12,North,0,0.0,0.0,79,0.00,,,0.00,WUHU21623XXSP,2013-04-07 03:20:00,
2013-04-06 22:25:00,53.4,47.1,30.11,North,0,0.0,0.0,79,0.00,,,0.00,WUHU21623XXSP,2013-04-07 03:25:00,
2013-04-06 22:30:00,53.2,46.9,30.11,North,0,0.0,0.0,80,0.00,,,0.00,WUHU21623XXSP,2013-04-07 03:30:00,
2013-04-06 22:35:00,52.9,46.9,30.11,North,0,0.0,0.0,80,0.00,,,0.00,WUHU21623XXSP,2013-04-07 03:35:00,
2013-04-06 22:40:00,52.9,46.9,30.11,North,0,0.0,0.0,80,0.00,,,0.00,WUHU21623XXSP,2013-04-07 03:40:00,
2013-04-06 22:45:00,52.7,46.8,30.11,North,0,0.0,0.0,80,0.00,,,0.00,WUHU21623XXSP,2013-04-07 03:45:00,
2013-04-06 22:50:00,52.3,46.4,30.11,North,0,0.0,0.0,80,0.00,,,0.00,WUHU21623XXSP,2013-04-07 03:50:00,
2013-04-06 22:55:00,52.2,46.5,30.11,North,0,0.0,0.0,81,0.00,,,0.00,WUHU21623XXSP,2013-04-07 03:55:00,
2013-04-06 23:00:00,52.0,46.3,30.11,North,0,0.0,0.0,81,0.00,,,0.00,WUHU21623XXSP,2013-04-07 04:00:00,
2013-04-06 23:05:00,51.6,46.0,30.10,North,0,0.0,0.0,81,0.00,,,0.00,WUHU21623XXSP,2013-04-07 04:05:00,
2013-04-06 23:10:00,51.6,46.0,30.10,North,0,0.0,0.0,81,0.00,,,0.00,WUHU21623XXSP,2013-04-07 04:10:00,
2013-04-06 23:15:00,51.4,45.8,30.10,North,0,0.0,0.0,81,0.00,,,0.00,WUHU21623XXSP,2013-04-07 04:15:00,
2013-04-06 23:20:00,51.1,45.9,30.11,North,0,0.0,0.0,82,0.00,,,0.00,WUHU21623XXSP,2013-04-07 04:20:00,
2013-04-06 23:25:00,51.1,45.8,30.11,North,0,0.0,0.0,82,0.00,,,0.00,WUHU21623XXSP,2013-04-07 04:25:00,
2013-04-06 23:30:00,50.9,45.6,30.11,North,0,0.0,0.0,82,0.00,,,0.00,WUHU21623XXSP,2013-04-07 04:30:00,
2013-04-06 23:35:00,50.7,45.4,30.11,North,0,0.0,0.0,82,0.00,,,0.00,WUHU21623XXSP,2013-04-07 04:35:00,
2013-04-06 23:40:00,50.5,45.2,30.11,North,0,0.0,0.0,82,0.00,,,0.00,WUHU21623XXSP,2013-04-07 04:40:00,
2013-04-06 23:45:00,50.4,45.0,30.10,North,0,0.0,0.0,82,0.00,,,0.00,WUHU21623XXSP,2013-04-07 04:45:00,
2013-04-06 23:50:00,50.2,44.9,30.10,North,0,0.0,0.0,82,0.00,,,0.00,WUHU21623XXSP,2013-04-07 04:50:00,
2013-04-06 23:55:00,49.8,44.7,30.10,North,0,0.0,0.0,83,0.00,,,0.00,WUHU21623XXSP,2013-04-07 04:55:00,